METAR Data
IDs: Format: Raw Decoded Include TAF

Data at: 0110 UTC 06 Dec 2019

KTRI 060053Z 00000KT 10SM CLR 01/M03 A3015 RMK AO2 SLP212 T00111033
KTRI 052353Z 00000KT 10SM CLR 04/M03 A3015 RMK AO2 SLP210 T00391033 10117 20039 51010
KTRI 052253Z 20003KT 10SM CLR 09/M03 A3014 RMK AO2 SLP202 T00891033
KTRI 052153Z 21006KT 10SM FEW250 09/M03 A3014 RMK AO2 SLP199 T00891028
KTRI 052053Z 22005KT 10SM FEW250 12/M03 A3012 RMK AO2 SLP192 T01171028 53003
KTRI 051953Z 21008KT 10SM FEW250 11/M03 A3011 RMK AO2 SLP189 T01111028
KTRI 051853Z 23008KT 190V270 10SM CLR 11/M03 A3011 RMK AO2 SLP187 T01061028
KTRI 051753Z 21010KT 10SM CLR 10/M03 A3011 RMK AO2 SLP190 T01001028 10100 21017 50000
KTRI 051653Z 27008KT 10SM CLR 09/M03 A3011 RMK AO2 SLP191 T00941028
KTRI 051553Z 24003KT 10SM CLR 08/M02 A3012 RMK AO2 SLP191 T00831022
KTRI 051453Z 23004KT 10SM CLR 07/M01 A3011 RMK AO2 SLP190 T00671006 53018
KTRI 051353Z 00000KT 10SM CLR 03/M01 A3009 RMK AO2 SLP187 T00331011
KTRI 051253Z 00000KT 10SM CLR M02/M04 A3007 RMK AO2 SLP180 T10171044
KTRI 051153Z 00000KT 10SM CLR M01/M04 A3006 RMK AO2 SLP175 T10061044 10039 21011 53022
KTRI 051053Z 24005KT 10SM CLR 01/M04 A3002 RMK AO2 SLP161 T00111039
KTRI 050953Z 26005KT 10SM CLR 03/M03 A2999 RMK AO2 SLP149 T00281033
KTRI 050853Z 26005KT 10SM CLR 04/M03 A2999 RMK AO2 SLP147 T00391033 51017
KTRI 050753Z 25006KT 10SM CLR 02/M04 A2997 RMK AO2 SLP142 T00221044
KTRI 050653Z 25006KT 10SM CLR 03/M04 A2995 RMK AO2 SLP135 T00331044
KTRI 050553Z 23006KT 10SM CLR 02/M04 A2994 RMK AO2 SLP131 T00221039 10067 20017 51014
KTRI 050453Z 22009KT 10SM CLR 03/M03 A2992 RMK AO2 SLP126 T00281033 401001050
KTRI 050353Z 22009KT 10SM CLR 04/M03 A2991 RMK AO2 SLP121 T00441033
KTRI 050253Z 23010KT 10SM CLR 05/M03 A2989 RMK AO2 SLP118 T00501028 53023
KTRI 050153Z 22009KT 10SM CLR 05/M02 A2986 RMK AO2 SLP110 T00501022
KTRI 050053Z 22011KT 10SM CLR 06/M02 A2984 RMK AO2 SLP103 T00611017
KTRI 042353Z 23010KT 10SM CLR 06/M02 A2982 RMK AO2 SLP096 T00611017 10100 20061 53012
KTRI 042253Z 23011KT 10SM CLR 07/M02 A2980 RMK AO2 SLP089 T00671017
KTRI 042153Z 23013KT 10SM CLR 09/M02 A2979 RMK AO2 SLP083 T00891017
KTRI 042053Z 25013G20KT 10SM FEW055 10/M02 A2978 RMK AO2 PK WND 23026/2039 SLP081 T01001022 55000
KTRI 041953Z 26015G23KT 10SM SCT036 10/M03 A2977 RMK AO2 SLP075 T01001028
KTRI 041853Z 23016KT 10SM FEW036 FEW250 10/M02 A2976 RMK AO2 SLP073 T01001022
KTRI 041753Z 24009G19KT 10SM SCT036 SCT150 09/M01 A2978 RMK AO2 SLP081 I6000 T00891006 10089 21050 58018
KTRI 041653Z 26012KT 10SM SCT027 SCT160 07/M01 A2981 RMK AO2 SLP091 T00721006
KTRI 041553Z 25010KT 10SM FEW030 SCT200 06/00 A2983 RMK AO2 SLP098 T00610000
KTRI 041453Z 00000KT 10SM FEW033 SCT200 02/M01 A2984 RMK AO2 SLP104 I3000 T00221006 52002
KTRI 041353Z 00000KT 7SM SCT032 BKN200 M01/M03 A2984 RMK AO2 SLP106 T10111028